Portada
METAR-TAF:

METAR-TAF

Aeropuertos :

Blytheville Municipal Airport

Blytheville, Arkansas, Estados Unidos

latitud: 35-56-20N, longitud: 089-49-57W, altitud: 78 m

Observación

El informe se hizo hace 1 hora y 15 minutos, a las 07:53 UTC
Viento 3 kt del sur
Temperatura 21°C
Humedad 88%
Presión 1014 hPa
Visibilidad: 12.9 km
Cielo despejado

METAR: KHKA 060753Z AUTO 19003KT 8SM CLR 21/19 A2995 RMK AO2 SLP141 T02060189 $

Hora: 04:08 (09:08 UTC)


TAF: falta

Observaciones y pronósticos meteorológicos de más de 4000 aeropuertos (mensajes METAR y TAF).

Los puntos amarillos y rojos representan las estaciones disponibles.

Ponga el ratón en el punto deseado para ver el nombre de la estación.

Haga clic para ver las observaciones y los pronósticos meteorológicos.

Para cambiar el mapa : haga clic en los botones verdes con una cruz de color negro para hacer un zoom, en el botón verde con un guión para alejar o en las flechas verdes para mapas adyacentes.


METAR-TAF: